createdAt,value
2023-03-26T00:00:29.474Z,8.07
2023-03-26T00:03:04.548Z,7.98
2023-03-26T00:05:21.227Z,7.94
2023-03-26T00:07:37.714Z,7.90
2023-03-26T00:09:51.744Z,7.87
2023-03-26T00:12:05.375Z,7.84
2023-03-26T00:14:28.246Z,7.75
2023-03-26T00:16:45.534Z,7.63
2023-03-26T00:19:11.103Z,7.53
2023-03-26T00:21:29.178Z,7.46
2023-03-26T00:23:44.266Z,7.39
2023-03-26T00:26:02.171Z,7.34
2023-03-26T00:28:18.505Z,7.32
2023-03-26T00:30:38.770Z,7.32
2023-03-26T00:33:03.332Z,7.32
2023-03-26T00:35:27.026Z,7.33
2023-03-26T00:37:44.349Z,7.36
2023-03-26T00:40:00.866Z,7.40
2023-03-26T00:42:16.040Z,7.44
2023-03-26T00:44:29.351Z,7.52
2023-03-26T00:46:43.313Z,7.66
2023-03-26T00:49:00.143Z,7.78
2023-03-26T00:51:16.789Z,7.96
2023-03-26T00:53:30.114Z,8.08
2023-03-26T00:55:45.200Z,8.13
2023-03-26T00:57:58.512Z,8.18
2023-03-26T01:00:18.001Z,8.22
2023-03-26T01:02:34.193Z,8.19
2023-03-26T01:04:51.860Z,8.20
2023-03-26T01:07:14.645Z,8.26
2023-03-26T01:09:34.301Z,8.25
2023-03-26T01:11:47.671Z,8.21
2023-03-26T01:14:03.742Z,8.17
2023-03-26T01:16:26.261Z,8.18
2023-03-26T01:18:42.360Z,8.16
2023-03-26T01:21:06.433Z,8.16
2023-03-26T01:23:25.366Z,8.16
2023-03-26T01:25:43.800Z,8.16
2023-03-26T01:27:59.267Z,8.12
2023-03-26T01:30:19.063Z,8.09
2023-03-26T01:32:42.652Z,8.04
2023-03-26T01:35:08.813Z,7.99
2023-03-26T01:37:28.881Z,7.95
2023-03-26T01:39:54.748Z,7.91
2023-03-26T01:42:13.006Z,7.85
2023-03-26T01:44:36.088Z,7.78
2023-03-26T01:46:51.204Z,7.74
2023-03-26T01:49:14.097Z,7.69
2023-03-26T01:51:37.281Z,7.66
2023-03-26T01:53:52.981Z,7.60
2023-03-26T01:56:16.511Z,7.54
2023-03-26T01:58:39.200Z,7.50
2023-03-26T02:01:07.333Z,7.44
2023-03-26T02:03:31.691Z,7.39
2023-03-26T02:05:54.288Z,7.37
2023-03-26T02:08:14.938Z,7.36
2023-03-26T02:10:34.209Z,7.35
2023-03-26T02:12:48.237Z,7.35
2023-03-26T02:15:02.509Z,7.33
2023-03-26T02:17:15.876Z,7.31
2023-03-26T02:19:29.982Z,7.27
2023-03-26T02:21:43.808Z,7.22
2023-03-26T02:24:04.231Z,7.18
2023-03-26T02:26:22.547Z,7.14
2023-03-26T02:28:56.218Z,7.10
2023-03-26T02:31:12.229Z,7.06
2023-03-26T02:33:25.287Z,7.02
2023-03-26T02:35:38.929Z,6.99
2023-03-26T02:37:53.000Z,6.96
2023-03-26T02:40:12.585Z,6.92
2023-03-26T02:42:28.204Z,6.89
2023-03-26T02:44:41.764Z,6.85
2023-03-26T02:46:54.794Z,6.82
2023-03-26T02:49:26.284Z,6.77
2023-03-26T02:51:41.165Z,6.73
2023-03-26T02:54:06.228Z,6.70
2023-03-26T02:56:22.056Z,6.66
2023-03-26T02:58:59.293Z,6.62
2023-03-26T03:01:13.713Z,6.59
2023-03-26T03:03:35.870Z,6.56
2023-03-26T03:06:12.963Z,6.51
2023-03-26T03:08:31.899Z,6.47
2023-03-26T03:11:11.089Z,6.44
2023-03-26T03:13:32.967Z,6.42
2023-03-26T03:15:54.880Z,6.41
2023-03-26T03:18:14.823Z,6.39
2023-03-26T03:20:31.653Z,6.39
2023-03-26T03:22:51.890Z,6.38
2023-03-26T03:25:06.165Z,6.31
2023-03-26T03:27:23.325Z,6.28
2023-03-26T03:29:50.539Z,6.25
2023-03-26T03:32:41.773Z,6.23
2023-03-26T03:34:57.937Z,6.20
2023-03-26T03:37:11.298Z,6.18
2023-03-26T03:39:32.544Z,6.18
2023-03-26T03:41:47.442Z,6.16
2023-03-26T03:44:03.902Z,6.14
2023-03-26T03:46:20.636Z,6.14
2023-03-26T03:48:40.321Z,6.13
2023-03-26T03:50:55.323Z,6.07
2023-03-26T03:53:29.685Z,6.03
2023-03-26T03:55:44.880Z,6.01
2023-03-26T03:58:00.599Z,5.99
2023-03-26T04:00:17.557Z,5.96
2023-03-26T04:02:35.857Z,5.92
2023-03-26T04:04:51.447Z,5.87
2023-03-26T04:07:07.277Z,5.83
2023-03-26T04:09:43.558Z,5.77
2023-03-26T04:12:02.173Z,5.71
2023-03-26T04:14:23.373Z,5.67
2023-03-26T04:16:57.375Z,5.62
2023-03-26T04:19:11.426Z,5.58
2023-03-26T04:21:25.512Z,5.56
2023-03-26T04:23:39.606Z,5.55
2023-03-26T04:26:10.725Z,5.55
2023-03-26T04:28:49.618Z,5.54
2023-03-26T04:31:15.067Z,5.51
2023-03-26T04:33:30.494Z,5.48
2023-03-26T04:35:46.346Z,5.45
2023-03-26T04:38:01.326Z,5.44
2023-03-26T04:40:23.388Z,5.42
2023-03-26T04:42:47.271Z,5.37
2023-03-26T04:45:31.507Z,5.34
2023-03-26T04:47:44.958Z,5.31
2023-03-26T04:49:58.688Z,5.28
2023-03-26T04:52:13.627Z,5.27
2023-03-26T04:55:06.047Z,5.28
2023-03-26T04:57:24.692Z,5.26
2023-03-26T04:59:47.452Z,5.17
2023-03-26T05:02:02.122Z,5.09
2023-03-26T05:04:17.739Z,5.03
2023-03-26T05:06:31.726Z,4.98
2023-03-26T05:08:46.821Z,4.92
2023-03-26T05:11:12.805Z,4.86
2023-03-26T05:13:26.537Z,4.80
2023-03-26T05:15:40.818Z,4.73
2023-03-26T05:18:14.129Z,4.69
2023-03-26T05:20:32.819Z,4.65
2023-03-26T05:22:47.831Z,4.62
2023-03-26T05:25:18.147Z,4.58
2023-03-26T05:27:32.196Z,4.56
2023-03-26T05:29:46.202Z,4.52
2023-03-26T05:31:59.433Z,4.49
2023-03-26T05:34:15.985Z,4.46
2023-03-26T05:36:29.428Z,4.42
2023-03-26T05:39:11.714Z,4.38
2023-03-26T05:41:46.108Z,4.33
2023-03-26T05:43:59.095Z,4.31
2023-03-26T05:46:15.376Z,4.29
2023-03-26T05:48:39.337Z,4.29
2023-03-26T05:50:54.909Z,4.29
2023-03-26T05:53:08.737Z,4.26
2023-03-26T05:55:41.728Z,4.20
2023-03-26T05:58:13.428Z,4.17
2023-03-26T06:01:09.556Z,4.15
2023-03-26T06:03:47.695Z,4.16
2023-03-26T06:06:07.062Z,4.16
2023-03-26T06:08:28.434Z,4.16
2023-03-26T06:10:43.464Z,4.12
2023-03-26T06:12:58.824Z,4.09
2023-03-26T06:15:15.215Z,4.06
2023-03-26T06:17:44.216Z,4.04
2023-03-26T06:20:26.952Z,3.99
2023-03-26T06:22:40.089Z,3.98
2023-03-26T06:25:07.645Z,3.97
2023-03-26T06:27:30.819Z,3.96
2023-03-26T06:30:02.355Z,3.96
2023-03-26T06:32:24.560Z,3.93
2023-03-26T06:34:41.596Z,3.94
2023-03-26T06:36:55.737Z,3.93
2023-03-26T06:39:09.700Z,3.92
2023-03-26T06:41:28.236Z,3.91
2023-03-26T06:43:57.960Z,3.92
2023-03-26T06:46:24.729Z,3.92
2023-03-26T06:48:57.502Z,3.92
2023-03-26T06:51:34.229Z,3.92
2023-03-26T06:53:49.879Z,3.92
2023-03-26T06:56:15.442Z,3.94
2023-03-26T06:58:46.669Z,3.96
2023-03-26T07:01:23.614Z,3.97
2023-03-26T07:03:56.063Z,3.98
2023-03-26T07:06:31.769Z,3.98
2023-03-26T07:09:11.661Z,3.98
2023-03-26T07:11:43.950Z,3.99
2023-03-26T07:14:16.073Z,4.00
2023-03-26T07:16:47.508Z,4.00
2023-03-26T07:19:20.594Z,4.00
2023-03-26T07:21:35.374Z,3.99
2023-03-26T07:23:56.596Z,4.00
2023-03-26T07:26:38.074Z,4.02
2023-03-26T07:29:10.239Z,4.03
2023-03-26T07:31:48.388Z,4.04
2023-03-26T07:34:48.982Z,4.04
2023-03-26T07:37:25.831Z,4.04
2023-03-26T07:40:08.484Z,4.04
2023-03-26T07:43:04.258Z,4.03
2023-03-26T07:45:57.844Z,4.03
2023-03-26T07:48:22.307Z,4.00
2023-03-26T07:51:04.267Z,3.99
2023-03-26T07:53:50.329Z,3.94
2023-03-26T07:56:29.915Z,3.87
2023-03-26T07:59:05.279Z,3.86
2023-03-26T08:01:44.314Z,3.83
2023-03-26T08:04:31.071Z,3.81
2023-03-26T08:07:21.626Z,3.81
2023-03-26T08:10:05.157Z,3.81
2023-03-26T08:12:56.923Z,3.77
2023-03-26T08:15:14.495Z,3.78
2023-03-26T08:17:39.191Z,3.76
2023-03-26T08:20:09.018Z,3.75
2023-03-26T08:22:29.185Z,3.73
2023-03-26T08:24:56.011Z,3.72
2023-03-26T08:27:17.894Z,3.71
2023-03-26T08:29:40.596Z,3.69
2023-03-26T08:31:56.654Z,3.68
2023-03-26T08:34:09.895Z,3.68
2023-03-26T08:36:22.734Z,3.66
2023-03-26T08:38:36.156Z,3.66
2023-03-26T08:41:26.111Z,3.66
2023-03-26T08:44:07.505Z,3.66
2023-03-26T08:46:44.432Z,3.66
2023-03-26T08:49:38.635Z,3.64
2023-03-26T08:52:36.841Z,3.62
2023-03-26T08:55:13.105Z,3.61
2023-03-26T08:58:28.414Z,3.62
2023-03-26T09:00:57.248Z,3.61
2023-03-26T09:03:56.709Z,3.59
2023-03-26T09:06:38.117Z,3.59
2023-03-26T09:09:31.363Z,3.59
2023-03-26T09:11:54.414Z,3.58
2023-03-26T09:14:34.809Z,3.57
2023-03-26T09:17:14.074Z,3.57
2023-03-26T09:20:16.417Z,3.52
2023-03-26T09:23:09.531Z,3.52
2023-03-26T09:25:44.268Z,3.53
2023-03-26T09:28:17.648Z,3.53
2023-03-26T09:31:10.003Z,3.54
2023-03-26T09:33:55.222Z,3.57
2023-03-26T09:39:28.799Z,3.61
2023-03-26T09:41:45.859Z,3.61
2023-03-26T09:44:49.616Z,3.61
2023-03-26T09:47:30.492Z,3.60
2023-03-26T09:49:53.934Z,3.61
2023-03-26T09:52:22.770Z,3.61
2023-03-26T09:55:10.710Z,3.62
2023-03-26T09:57:32.593Z,3.62
2023-03-26T10:00:05.222Z,3.65
2023-03-26T10:02:45.291Z,3.70
2023-03-26T10:05:20.810Z,3.76
2023-03-26T10:07:50.829Z,3.87
2023-03-26T10:10:10.901Z,3.95
2023-03-26T10:12:31.921Z,4.01
2023-03-26T10:14:47.917Z,4.06
2023-03-26T10:17:06.786Z,4.10
2023-03-26T10:19:43.632Z,4.16
2023-03-26T10:22:04.228Z,4.23
2023-03-26T10:24:26.119Z,4.27
2023-03-26T10:27:08.891Z,4.32
2023-03-26T10:29:46.568Z,4.36
2023-03-26T10:32:05.939Z,4.39
2023-03-26T10:34:31.259Z,4.51
2023-03-26T10:36:49.064Z,4.61
2023-03-26T10:39:35.878Z,4.64
2023-03-26T10:41:53.907Z,4.65
2023-03-26T10:44:36.542Z,4.67
2023-03-26T10:47:09.094Z,4.73
2023-03-26T10:49:55.925Z,4.77
2023-03-26T10:52:10.131Z,4.82
2023-03-26T10:54:41.792Z,4.89
2023-03-26T10:56:53.728Z,4.97
2023-03-26T10:59:08.047Z,5.03
2023-03-26T11:01:30.087Z,5.06
2023-03-26T11:03:52.893Z,5.10
2023-03-26T11:06:13.016Z,5.13
2023-03-26T11:08:31.953Z,5.12
2023-03-26T11:10:55.484Z,5.09
2023-03-26T11:13:16.228Z,5.07
2023-03-26T11:15:31.741Z,5.04
2023-03-26T11:17:53.057Z,5.01
2023-03-26T11:20:12.182Z,4.98
2023-03-26T11:22:29.710Z,4.95
2023-03-26T11:25:16.609Z,4.94
2023-03-26T11:27:39.978Z,4.93
2023-03-26T11:29:57.141Z,4.86
2023-03-26T11:32:12.370Z,4.77
2023-03-26T11:34:29.791Z,4.71
2023-03-26T11:36:45.602Z,4.67
2023-03-26T11:38:59.905Z,4.63
2023-03-26T11:41:23.296Z,4.60
2023-03-26T11:43:38.891Z,4.57
2023-03-26T11:45:52.386Z,4.56
2023-03-26T11:48:08.667Z,4.55
2023-03-26T11:50:26.016Z,4.55
2023-03-26T11:52:36.684Z,4.51
2023-03-26T11:54:51.326Z,4.47
2023-03-26T11:57:06.704Z,4.45
2023-03-26T11:59:21.661Z,4.41
2023-03-26T12:01:44.772Z,4.39
2023-03-26T12:04:13.812Z,4.39
2023-03-26T12:06:29.871Z,4.42
2023-03-26T12:08:43.704Z,4.51
2023-03-26T12:11:11.026Z,4.62
2023-03-26T12:13:36.619Z,4.72
2023-03-26T12:15:48.477Z,4.81
2023-03-26T12:18:00.340Z,4.89
2023-03-26T12:20:32.764Z,4.98
2023-03-26T12:22:44.974Z,5.08
2023-03-26T12:25:05.585Z,5.16
2023-03-26T12:27:31.289Z,5.23
2023-03-26T12:29:41.503Z,5.31
2023-03-26T12:32:06.791Z,5.37
2023-03-26T12:34:22.961Z,5.43
2023-03-26T12:36:34.624Z,5.49
2023-03-26T12:38:46.571Z,5.56
2023-03-26T12:44:42.291Z,5.63
2023-03-26T12:44:54.133Z,5.68
2023-03-26T12:47:55.305Z,5.67
2023-03-26T12:49:01.769Z,5.63
2023-03-26T12:51:20.804Z,5.61
2023-03-26T12:53:46.335Z,5.56
2023-03-26T12:56:04.372Z,5.54
2023-03-26T12:58:40.124Z,5.53
2023-03-26T13:01:03.086Z,5.53
2023-03-26T13:03:42.544Z,5.53
2023-03-26T13:06:19.398Z,5.51
2023-03-26T13:08:50.717Z,5.50
2023-03-26T13:11:10.696Z,5.47
2023-03-26T13:13:57.081Z,5.43
2023-03-26T13:16:12.184Z,5.33
2023-03-26T13:18:34.337Z,5.23
2023-03-26T13:20:58.054Z,5.17
2023-03-26T13:23:19.208Z,5.14
2023-03-26T13:25:39.845Z,5.10
2023-03-26T13:28:00.177Z,5.08
2023-03-26T13:30:29.916Z,5.08
2023-03-26T13:32:51.435Z,5.09
2023-03-26T13:35:21.661Z,5.11
2023-03-26T13:37:36.819Z,5.11
2023-03-26T13:40:00.724Z,5.12
2023-03-26T13:42:34.473Z,5.13
2023-03-26T13:45:05.193Z,5.14
2023-03-26T13:47:20.187Z,5.13
2023-03-26T13:49:37.671Z,5.13
2023-03-26T13:51:52.170Z,5.12
2023-03-26T13:54:08.115Z,5.10
2023-03-26T13:56:24.271Z,5.08
2023-03-26T13:58:41.021Z,5.06
2023-03-26T14:01:04.659Z,5.04
2023-03-26T14:03:27.184Z,5.03
2023-03-26T14:05:42.196Z,4.98
2023-03-26T14:07:57.792Z,4.96
2023-03-26T14:10:10.854Z,4.91
2023-03-26T14:12:49.634Z,4.87
2023-03-26T14:15:04.705Z,4.86
2023-03-26T14:17:21.935Z,4.87
2023-03-26T14:19:57.770Z,4.88
2023-03-26T14:22:21.183Z,4.86
2023-03-26T14:24:56.298Z,4.88
2023-03-26T14:27:40.261Z,4.85
2023-03-26T14:30:12.207Z,4.83
2023-03-26T14:32:34.940Z,4.82
2023-03-26T14:34:55.087Z,4.78
2023-03-26T14:37:45.175Z,4.75
2023-03-26T14:40:15.549Z,4.74
2023-03-26T14:42:36.925Z,4.73
2023-03-26T14:45:28.886Z,4.73
2023-03-26T14:47:47.724Z,4.73
2023-03-26T14:50:39.536Z,4.71
2023-03-26T14:53:01.227Z,4.71
2023-03-26T14:55:20.575Z,4.72
2023-03-26T14:57:51.599Z,4.73
2023-03-26T15:00:54.409Z,4.75
2023-03-26T15:03:49.738Z,4.78
2023-03-26T15:06:36.929Z,4.81
2023-03-26T15:09:13.220Z,4.86
2023-03-26T15:11:34.539Z,4.93
2023-03-26T15:14:02.965Z,4.98
2023-03-26T15:16:47.563Z,5.04
2023-03-26T15:19:29.946Z,5.11
2023-03-26T15:22:15.238Z,5.17
2023-03-26T15:24:55.869Z,5.22
2023-03-26T15:27:33.995Z,5.23
2023-03-26T15:30:19.884Z,5.25
2023-03-26T15:33:06.103Z,5.27
2023-03-26T15:35:55.737Z,5.28
2023-03-26T15:38:48.461Z,5.27
2023-03-26T15:41:18.324Z,5.26
2023-03-26T15:44:05.071Z,5.19
2023-03-26T15:46:53.096Z,5.07
2023-03-26T15:49:16.875Z,4.98
2023-03-26T15:51:58.526Z,4.92
2023-03-26T15:54:18.998Z,4.86
2023-03-26T15:56:49.691Z,4.82
2023-03-26T15:59:08.605Z,4.82
2023-03-26T16:01:32.547Z,4.85
2023-03-26T16:03:50.616Z,4.86
2023-03-26T16:06:36.980Z,4.87
2023-03-26T16:08:56.995Z,4.89
2023-03-26T16:11:11.274Z,4.91
2023-03-26T16:13:34.783Z,4.95
2023-03-26T16:15:45.254Z,4.98
2023-03-26T16:18:27.405Z,4.99
2023-03-26T16:20:51.500Z,5.04
2023-03-26T16:23:05.035Z,5.10
2023-03-26T16:25:31.983Z,5.16
2023-03-26T16:27:43.626Z,5.21
2023-03-26T16:30:27.959Z,5.25
2023-03-26T16:32:42.805Z,5.28
2023-03-26T16:34:57.257Z,5.28
2023-03-26T16:37:29.539Z,5.28
2023-03-26T16:39:46.845Z,5.27
2023-03-26T16:42:41.225Z,5.25
2023-03-26T16:45:09.916Z,5.26
2023-03-26T16:47:27.902Z,5.29
2023-03-26T16:50:08.209Z,5.36
2023-03-26T16:52:44.507Z,5.43
2023-03-26T16:55:02.654Z,5.53
2023-03-26T16:57:25.814Z,5.64
2023-03-26T17:00:06.200Z,5.78
2023-03-26T17:02:28.893Z,5.96
2023-03-26T17:04:40.656Z,6.14
2023-03-26T17:07:15.600Z,6.32
2023-03-26T17:09:35.696Z,6.56
2023-03-26T17:11:58.117Z,6.81
2023-03-26T17:14:24.574Z,7.04
2023-03-26T17:16:39.467Z,7.19
2023-03-26T17:19:01.122Z,7.27
2023-03-26T17:21:17.958Z,7.31
2023-03-26T17:23:51.643Z,7.29
2023-03-26T17:26:13.324Z,7.29
2023-03-26T17:28:52.136Z,7.33
2023-03-26T17:31:08.164Z,7.30
2023-03-26T17:33:30.193Z,7.26
2023-03-26T17:35:47.418Z,7.24
2023-03-26T17:37:58.609Z,7.21
2023-03-26T17:40:50.405Z,7.16
2023-03-26T17:43:11.541Z,7.12
2023-03-26T17:45:25.575Z,7.09
2023-03-26T17:47:41.685Z,7.06
2023-03-26T17:49:53.285Z,7.03
2023-03-26T17:52:07.086Z,7.03
2023-03-26T17:54:25.124Z,7.04
2023-03-26T17:56:38.102Z,7.05
2023-03-26T17:58:48.720Z,7.09
2023-03-26T18:01:09.427Z,7.19
2023-03-26T18:03:24.755Z,7.31
2023-03-26T18:05:35.682Z,7.44
2023-03-26T18:08:15.706Z,7.58
2023-03-26T18:10:46.016Z,7.71
2023-03-26T18:13:11.180Z,7.78
2023-03-26T18:15:44.934Z,7.87
2023-03-26T18:18:04.652Z,7.92
2023-03-26T18:20:25.172Z,7.92
2023-03-26T18:22:35.762Z,7.85
2023-03-26T18:24:48.097Z,7.80
2023-03-26T18:27:01.564Z,7.85
2023-03-26T18:29:21.889Z,7.94
2023-03-26T18:31:33.609Z,8.01
2023-03-26T18:33:51.894Z,8.07
2023-03-26T18:36:02.646Z,8.14
2023-03-26T18:38:36.085Z,8.14
2023-03-26T18:40:50.185Z,8.14
2023-03-26T18:43:01.575Z,8.08
2023-03-26T18:45:21.197Z,8.04
2023-03-26T18:47:37.226Z,8.03
2023-03-26T18:49:49.584Z,8.05
2023-03-26T18:52:00.244Z,8.11
2023-03-26T18:54:17.627Z,8.16
2023-03-26T18:56:37.086Z,8.14
2023-03-26T18:58:54.395Z,8.14
2023-03-26T19:01:08.566Z,8.06
2023-03-26T19:03:25.532Z,8.08
2023-03-26T19:05:37.858Z,8.15
2023-03-26T19:07:49.031Z,8.19
2023-03-26T19:09:59.085Z,8.23
2023-03-26T19:12:17.972Z,8.24
2023-03-26T19:14:36.015Z,8.28
2023-03-26T19:16:48.014Z,8.31
2023-03-26T19:19:00.444Z,8.39
2023-03-26T19:21:11.413Z,8.46
2023-03-26T19:23:24.054Z,8.50
2023-03-26T19:25:33.731Z,8.51
2023-03-26T19:27:43.586Z,8.58
2023-03-26T19:29:54.004Z,8.66
2023-03-26T19:32:17.206Z,8.74
2023-03-26T19:34:33.868Z,8.84
2023-03-26T19:36:58.571Z,8.93
2023-03-26T19:39:24.284Z,8.95
2023-03-26T19:41:44.226Z,8.93
2023-03-26T19:46:26.694Z,9.07
2023-03-26T19:48:46.733Z,9.15
2023-03-26T19:51:06.594Z,9.22
2023-03-26T19:51:18.146Z,8.98
2023-03-26T19:53:24.751Z,9.24
2023-03-26T19:55:34.908Z,9.24
2023-03-26T19:57:45.830Z,9.28
2023-03-26T19:59:57.536Z,9.30
2023-03-26T20:02:11.852Z,9.30
2023-03-26T20:04:21.780Z,9.32
2023-03-26T20:06:42.551Z,9.33
2023-03-26T20:08:53.610Z,9.32
2023-03-26T20:11:03.951Z,9.35
2023-03-26T20:13:19.352Z,9.42
2023-03-26T20:15:32.162Z,9.51
2023-03-26T20:17:43.641Z,9.58
2023-03-26T20:19:54.801Z,9.62
2023-03-26T20:22:06.275Z,9.64
2023-03-26T20:24:16.329Z,9.57
2023-03-26T20:26:27.292Z,9.57
2023-03-26T20:28:47.327Z,9.61
2023-03-26T20:30:58.115Z,9.72
2023-03-26T20:33:13.294Z,9.81
2023-03-26T20:35:35.896Z,9.95
2023-03-26T20:37:47.396Z,10.11
2023-03-26T20:39:56.974Z,10.23
2023-03-26T20:42:07.962Z,10.28
2023-03-26T20:44:19.290Z,10.21
2023-03-26T20:46:30.686Z,10.16
2023-03-26T20:48:41.844Z,10.07
2023-03-26T20:50:51.944Z,9.99
2023-03-26T20:53:03.473Z,9.96
2023-03-26T20:55:17.059Z,9.98
2023-03-26T20:57:26.939Z,9.98
2023-03-26T20:59:37.008Z,9.94
2023-03-26T21:01:47.943Z,9.98
2023-03-26T21:03:58.538Z,10.00
2023-03-26T21:06:13.846Z,9.97
2023-03-26T21:08:30.731Z,9.95
2023-03-26T21:10:41.861Z,10.02
2023-03-26T21:12:59.145Z,10.09
2023-03-26T21:15:22.310Z,10.08
2023-03-26T21:17:34.739Z,10.03
2023-03-26T21:19:46.596Z,9.85
2023-03-26T21:22:05.653Z,9.49
2023-03-26T21:24:23.362Z,9.06
2023-03-26T21:26:41.640Z,8.64
2023-03-26T21:28:52.941Z,8.29
2023-03-26T21:31:05.332Z,7.99
2023-03-26T21:33:16.062Z,7.78
2023-03-26T21:35:27.684Z,7.56
2023-03-26T21:37:38.844Z,7.37
2023-03-26T21:39:49.307Z,7.20
2023-03-26T21:42:04.888Z,7.02
2023-03-26T21:44:16.954Z,6.88
2023-03-26T21:46:27.983Z,6.79
2023-03-26T21:48:39.454Z,6.74
2023-03-26T21:50:50.566Z,6.69
2023-03-26T21:53:01.633Z,6.65
2023-03-26T21:55:15.842Z,6.64
2023-03-26T21:57:48.027Z,6.66
2023-03-26T22:00:15.346Z,6.63
2023-03-26T22:02:32.498Z,6.61
2023-03-26T22:04:48.474Z,6.57
2023-03-26T22:07:04.856Z,6.50
2023-03-26T22:09:18.496Z,6.42
2023-03-26T22:11:31.167Z,6.36
2023-03-26T22:13:41.587Z,6.33
2023-03-26T22:15:51.875Z,6.33
2023-03-26T22:18:05.671Z,6.46
2023-03-26T22:20:16.536Z,6.68
2023-03-26T22:22:28.828Z,6.89
2023-03-26T22:24:39.546Z,7.07
2023-03-26T22:26:49.253Z,7.20
2023-03-26T22:28:58.980Z,7.31
2023-03-26T22:31:12.657Z,7.43
2023-03-26T22:33:22.439Z,7.49
2023-03-26T22:35:32.135Z,7.58
2023-03-26T22:37:42.426Z,7.66
2023-03-26T22:39:52.312Z,7.74
2023-03-26T22:42:04.442Z,7.83
2023-03-26T22:46:31.384Z,7.98
2023-03-26T22:48:41.987Z,8.04
2023-03-26T22:51:01.566Z,8.07
2023-03-26T22:53:11.475Z,8.13
2023-03-26T22:55:28.353Z,8.22
2023-03-26T22:57:39.137Z,8.32
2023-03-26T22:59:48.851Z,8.37
2023-03-26T23:01:59.073Z,8.44
2023-03-26T23:04:09.121Z,8.55
2023-03-26T23:06:19.091Z,8.66
2023-03-26T23:08:29.287Z,8.71
2023-03-26T23:10:39.106Z,8.74
2023-03-26T23:12:49.258Z,8.72
2023-03-26T23:14:58.775Z,8.64
2023-03-26T23:17:14.960Z,8.61
2023-03-26T23:19:26.043Z,8.59
2023-03-26T23:21:37.208Z,8.60
2023-03-26T23:23:47.797Z,8.59
2023-03-26T23:25:59.438Z,8.68
2023-03-26T23:28:10.386Z,8.83
2023-03-26T23:30:21.301Z,8.98
2023-03-26T23:32:31.347Z,9.05
2023-03-26T23:34:52.042Z,9.09
2023-03-26T23:37:02.649Z,9.23
2023-03-26T23:39:12.841Z,9.38
2023-03-26T23:41:25.979Z,9.43
2023-03-26T23:43:35.942Z,9.46
2023-03-26T23:45:47.666Z,9.56
2023-03-26T23:47:57.991Z,9.60
2023-03-26T23:50:10.272Z,9.66
2023-03-26T23:52:20.647Z,9.71
2023-03-26T23:54:31.086Z,9.75
2023-03-26T23:56:40.636Z,9.80
2023-03-26T23:58:50.469Z,9.87
